createdAt,value
2018-08-20T00:02:08.456Z,99324.72
2018-08-20T00:04:42.870Z,99329.70
2018-08-20T00:07:17.292Z,99332.47
2018-08-20T00:09:46.865Z,99324.48
2018-08-20T00:12:18.479Z,99327.86
2018-08-20T00:14:47.653Z,99327.97
2018-08-20T00:17:17.193Z,99324.17
2018-08-20T00:19:46.275Z,99320.92
2018-08-20T00:22:15.410Z,99329.81
2018-08-20T00:24:44.810Z,99331.20
2018-08-20T00:27:14.068Z,99330.19
2018-08-20T00:29:43.042Z,99331.57
2018-08-20T00:32:12.441Z,99327.98
2018-08-20T00:34:42.710Z,99330.52
2018-08-20T00:37:11.895Z,99323.14
2018-08-20T00:39:40.911Z,99326.95
2018-08-20T00:42:10.029Z,99322.93
2018-08-20T00:44:39.237Z,99324.08
2018-08-20T00:47:08.814Z,99320.83
2018-08-20T00:49:38.012Z,99320.63
2018-08-20T00:52:07.266Z,99316.80
2018-08-20T00:54:36.258Z,99321.50
2018-08-20T00:57:05.346Z,99305.59
2018-08-20T00:59:34.643Z,99315.27
2018-08-20T01:02:03.922Z,99322.78
2018-08-20T01:04:33.055Z,99324.53
2018-08-20T01:07:02.079Z,99316.22
2018-08-20T01:09:31.137Z,99325.67
2018-08-20T01:12:00.769Z,99327.06
2018-08-20T01:14:29.971Z,99321.86
2018-08-20T01:16:59.257Z,99325.77
2018-08-20T01:19:28.794Z,99328.44
2018-08-20T01:21:57.749Z,99330.19
2018-08-20T01:24:26.867Z,99325.34
2018-08-20T01:26:55.885Z,99328.78
2018-08-20T01:29:25.026Z,99331.44
2018-08-20T01:31:53.926Z,99327.41
2018-08-20T01:34:22.946Z,99329.73
2018-08-20T01:36:52.359Z,99328.68
2018-08-20T01:39:21.427Z,99324.05
2018-08-20T01:41:50.504Z,99318.62
2018-08-20T01:44:19.399Z,99314.84
2018-08-20T01:46:48.605Z,99321.52
2018-08-20T01:49:17.910Z,99317.70
2018-08-20T01:51:47.164Z,99315.50
2018-08-20T01:54:16.149Z,99320.84
2018-08-20T01:56:45.212Z,99316.20
2018-08-20T01:59:14.535Z,99317.71
2018-08-20T02:01:43.482Z,99319.42
2018-08-20T02:04:12.431Z,99314.02
2018-08-20T02:06:41.675Z,99327.29
2018-08-20T02:09:11.035Z,99319.31
2018-08-20T02:11:40.224Z,99316.91
2018-08-20T02:14:09.635Z,99315.85
2018-08-20T02:16:39.448Z,99323.02
2018-08-20T02:19:09.753Z,99317.81
2018-08-20T02:21:38.669Z,99320.82
2018-08-20T02:24:07.760Z,99312.27
2018-08-20T02:26:37.143Z,99309.27
2018-08-20T02:29:06.512Z,99312.03
2018-08-20T02:31:35.735Z,99307.87
2018-08-20T02:34:05.315Z,99309.27
2018-08-20T02:36:34.420Z,99302.91
2018-08-20T02:39:04.068Z,99307.67
2018-08-20T02:41:33.164Z,99304.17
2018-08-20T02:44:02.239Z,99308.13
2018-08-20T02:46:42.265Z,99306.02
2018-08-20T02:49:11.328Z,99298.73
2018-08-20T02:51:40.742Z,99302.98
2018-08-20T02:54:10.843Z,99307.02
2018-08-20T02:56:40.583Z,99312.44
2018-08-20T02:59:09.816Z,99307.34
2018-08-20T03:01:38.811Z,99308.97
2018-08-20T03:04:08.217Z,99309.42
2018-08-20T03:06:38.078Z,99310.11
2018-08-20T03:09:14.226Z,99314.92
2018-08-20T03:11:43.194Z,99306.86
2018-08-20T03:14:13.300Z,99308.69
2018-08-20T03:16:43.164Z,99310.61
2018-08-20T03:19:12.394Z,99310.02
2018-08-20T03:21:41.494Z,99312.66
2018-08-20T03:24:10.806Z,99304.30
2018-08-20T03:26:40.322Z,99305.09
2018-08-20T03:29:10.815Z,99306.11
2018-08-20T03:31:46.576Z,99308.29
2018-08-20T03:34:15.871Z,99314.02
2018-08-20T03:36:44.953Z,99302.34
2018-08-20T03:39:15.093Z,99306.36
2018-08-20T03:41:44.229Z,99312.81
2018-08-20T03:44:13.251Z,99307.47
2018-08-20T03:46:42.589Z,99313.69
2018-08-20T03:49:11.932Z,99319.53
2018-08-20T03:51:41.670Z,99320.14
2018-08-20T03:54:10.775Z,99319.89
2018-08-20T03:56:40.281Z,99319.89
2018-08-20T03:59:10.471Z,99316.88
2018-08-20T04:01:39.447Z,99318.27
2018-08-20T04:04:09.278Z,99312.49
2018-08-20T04:06:38.335Z,99315.26
2018-08-20T04:09:07.920Z,99316.42
2018-08-20T04:11:36.983Z,99311.79
2018-08-20T04:14:06.236Z,99316.75
2018-08-20T04:16:41.543Z,99315.61
2018-08-20T04:19:10.494Z,99314.23
2018-08-20T04:21:42.196Z,99322.98
2018-08-20T04:24:11.239Z,99319.65
2018-08-20T04:26:40.214Z,99317.94
2018-08-20T04:29:09.344Z,99324.28
2018-08-20T04:31:38.474Z,99324.50
2018-08-20T04:34:07.793Z,99331.41
2018-08-20T04:36:36.975Z,99336.94
2018-08-20T04:39:07.090Z,99332.22
2018-08-20T04:41:36.229Z,99333.61
2018-08-20T04:44:05.119Z,99332.22
2018-08-20T04:46:34.148Z,99337.75
2018-08-20T04:49:03.278Z,99342.14
2018-08-20T04:51:32.346Z,99350.33
2018-08-20T04:54:01.500Z,99349.44
2018-08-20T04:56:30.991Z,99349.44
2018-08-20T04:59:00.890Z,99335.48
2018-08-20T05:01:29.897Z,99348.64
2018-08-20T05:03:59.475Z,99350.27
2018-08-20T05:06:29.408Z,99350.16
2018-08-20T05:08:58.623Z,99344.77
2018-08-20T05:11:28.118Z,99348.83
2018-08-20T05:13:57.281Z,99352.55
2018-08-20T05:16:26.522Z,99344.51
2018-08-20T05:18:55.700Z,99345.66
2018-08-20T05:21:31.734Z,99340.20
2018-08-20T05:24:00.963Z,99342.74
2018-08-20T05:26:30.088Z,99337.25
2018-08-20T05:28:59.702Z,99335.66
2018-08-20T05:31:29.116Z,99341.09
2018-08-20T05:33:58.324Z,99342.47
2018-08-20T05:36:27.362Z,99345.94
2018-08-20T05:38:56.311Z,99350.20
2018-08-20T05:41:25.595Z,99347.48
2018-08-20T05:43:54.583Z,99348.62
2018-08-20T05:46:29.953Z,99359.50
2018-08-20T05:48:58.928Z,99357.30
2018-08-20T05:51:28.214Z,99359.86
2018-08-20T05:53:57.468Z,99355.95
2018-08-20T05:56:26.688Z,99361.56
2018-08-20T05:58:55.835Z,99361.88
2018-08-20T06:01:24.805Z,99364.44
2018-08-20T06:03:54.179Z,99372.55
2018-08-20T06:06:23.510Z,99371.03
2018-08-20T06:08:52.882Z,99372.54
2018-08-20T06:11:22.224Z,99376.57
2018-08-20T06:13:51.386Z,99378.88
2018-08-20T06:16:20.787Z,99379.81
2018-08-20T06:18:50.036Z,99383.27
2018-08-20T06:21:19.853Z,99384.20
2018-08-20T06:23:48.933Z,99385.70
2018-08-20T06:26:17.821Z,99383.66
2018-08-20T06:28:47.115Z,99382.14
2018-08-20T06:31:16.346Z,99377.53
2018-08-20T06:33:47.253Z,99381.56
2018-08-20T06:36:16.439Z,99386.64
2018-08-20T06:38:46.036Z,99381.48
2018-08-20T06:41:15.074Z,99389.91
2018-08-20T06:43:44.125Z,99388.30
2018-08-20T06:46:13.260Z,99386.45
2018-08-20T06:48:42.264Z,99385.99
2018-08-20T06:51:11.470Z,99388.27
2018-08-20T06:53:40.574Z,99387.80
2018-08-20T06:56:09.926Z,99390.35
2018-08-20T06:58:39.042Z,99394.28
2018-08-20T07:01:08.281Z,99398.55
2018-08-20T07:03:37.639Z,99398.66
2018-08-20T07:06:06.821Z,99399.34
2018-08-20T07:08:35.842Z,99399.45
2018-08-20T07:11:05.593Z,99404.19
2018-08-20T07:13:36.204Z,99397.97
2018-08-20T07:16:06.095Z,99399.91
2018-08-20T07:18:35.291Z,99406.95
2018-08-20T07:21:04.370Z,99398.95
2018-08-20T07:23:33.594Z,99399.43
2018-08-20T07:26:02.985Z,99398.34
2018-08-20T07:28:32.230Z,99396.72
2018-08-20T07:31:01.409Z,99388.50
2018-08-20T07:33:31.093Z,99402.95
2018-08-20T07:36:00.303Z,99399.46
2018-08-20T07:38:29.380Z,99405.69
2018-08-20T07:40:58.719Z,99406.16
2018-08-20T07:43:27.871Z,99408.23
2018-08-20T07:46:03.656Z,99408.91
2018-08-20T07:48:33.338Z,99410.39
2018-08-20T07:51:02.618Z,99396.84
2018-08-20T07:53:31.933Z,99401.13
2018-08-20T07:56:01.472Z,99399.03
2018-08-20T07:58:30.472Z,99412.44
2018-08-20T08:01:00.058Z,99403.62
2018-08-20T08:03:31.116Z,99407.88
2018-08-20T08:06:02.664Z,99404.85
2018-08-20T08:08:31.795Z,99407.82
2018-08-20T08:11:00.820Z,99399.00
2018-08-20T08:13:30.703Z,99399.77
2018-08-20T08:16:00.100Z,99402.58
2018-08-20T08:18:29.156Z,99396.84
2018-08-20T08:20:58.256Z,99395.66
2018-08-20T08:23:28.318Z,99392.28
2018-08-20T08:25:57.692Z,99393.84
2018-08-20T08:28:26.787Z,99394.36
2018-08-20T08:30:56.021Z,99386.18
2018-08-20T08:33:25.266Z,99386.95
2018-08-20T08:35:54.424Z,99380.20
2018-08-20T08:38:23.535Z,99388.09
2018-08-20T08:40:52.533Z,99393.19
2018-08-20T08:43:21.569Z,99388.36
2018-08-20T08:45:51.464Z,99381.56
2018-08-20T08:48:20.817Z,99384.27
2018-08-20T08:50:50.503Z,99376.30
2018-08-20T08:53:20.228Z,99376.24
2018-08-20T08:55:49.613Z,99381.73
2018-08-20T08:58:18.616Z,99374.27
2018-08-20T09:00:47.721Z,99376.96
2018-08-20T09:03:16.768Z,99374.16
2018-08-20T09:05:52.541Z,99374.30
2018-08-20T09:08:21.547Z,99375.59
2018-08-20T09:10:51.143Z,99370.31
2018-08-20T09:13:20.302Z,99365.27
2018-08-20T09:15:49.772Z,99365.53
2018-08-20T09:18:19.044Z,99362.45
2018-08-20T09:20:48.252Z,99362.74
2018-08-20T09:23:17.976Z,99362.22
2018-08-20T09:25:47.408Z,99353.98
2018-08-20T09:28:16.707Z,99354.95
2018-08-20T09:30:45.783Z,99362.10
2018-08-20T09:33:15.570Z,99358.27
2018-08-20T09:35:44.714Z,99354.65
2018-08-20T09:38:13.763Z,99354.23
2018-08-20T09:40:42.906Z,99352.78
2018-08-20T09:43:12.064Z,99358.36
2018-08-20T09:45:41.468Z,99355.67
2018-08-20T09:48:11.761Z,99346.77
2018-08-20T09:50:40.916Z,99352.27
2018-08-20T09:53:09.986Z,99347.59
2018-08-20T09:55:39.145Z,99353.13
2018-08-20T09:58:08.306Z,99343.09
2018-08-20T10:00:41.836Z,99349.56
2018-08-20T10:03:11.633Z,99348.66
2018-08-20T10:05:41.256Z,99348.11
2018-08-20T10:08:10.307Z,99343.79
2018-08-20T10:10:39.748Z,99348.46
2018-08-20T10:13:09.294Z,99345.90
2018-08-20T10:15:38.999Z,99344.80
2018-08-20T10:18:09.162Z,99339.73
2018-08-20T10:20:38.554Z,99342.22
2018-08-20T10:23:07.514Z,99341.30
2018-08-20T10:25:36.736Z,99336.99
2018-08-20T10:28:05.906Z,99337.80
2018-08-20T10:30:35.110Z,99331.66
2018-08-20T10:33:04.282Z,99333.73
2018-08-20T10:35:33.653Z,99326.38
2018-08-20T10:38:02.855Z,99323.27
2018-08-20T10:40:31.954Z,99324.76
2018-08-20T10:43:00.933Z,99320.43
2018-08-20T10:45:35.153Z,99328.88
2018-08-20T10:48:04.229Z,99321.94
2018-08-20T10:50:33.715Z,99315.39
2018-08-20T10:53:02.921Z,99313.27
2018-08-20T10:55:32.141Z,99308.52
2018-08-20T10:58:01.660Z,99308.59
2018-08-20T11:00:30.691Z,99314.02
2018-08-20T11:02:59.922Z,99309.67
2018-08-20T11:05:28.999Z,99303.52
2018-08-20T11:07:58.052Z,99303.14
2018-08-20T11:10:27.647Z,99297.38
2018-08-20T11:12:56.816Z,99293.59
2018-08-20T11:15:25.846Z,99294.45
2018-08-20T11:17:55.004Z,99294.48
2018-08-20T11:20:24.755Z,99292.33
2018-08-20T11:22:53.856Z,99281.95
2018-08-20T11:25:23.263Z,99283.95
2018-08-20T11:27:52.410Z,99286.56
2018-08-20T11:30:23.006Z,99277.78
2018-08-20T11:32:52.153Z,99280.59
2018-08-20T11:35:21.361Z,99276.98
2018-08-20T11:37:50.583Z,99273.41
2018-08-20T11:40:19.846Z,99268.61
2018-08-20T11:42:48.855Z,99263.81
2018-08-20T11:45:18.001Z,99264.03
2018-08-20T11:47:46.933Z,99258.23
2018-08-20T11:50:16.027Z,99258.83
2018-08-20T11:52:45.628Z,99255.66
2018-08-20T11:55:14.650Z,99246.03
2018-08-20T11:57:43.717Z,99246.61
2018-08-20T12:00:12.651Z,99248.59
2018-08-20T12:02:42.571Z,99239.55
2018-08-20T12:05:11.615Z,99236.34
2018-08-20T12:07:40.789Z,99235.93
2018-08-20T12:10:10.829Z,99229.70
2018-08-20T12:12:40.544Z,99235.47
2018-08-20T12:15:11.631Z,99228.05
2018-08-20T12:17:41.338Z,99227.42
2018-08-20T12:20:10.910Z,99220.39
2018-08-20T12:22:40.517Z,99215.78
2018-08-20T12:25:14.394Z,99218.59
2018-08-20T12:27:43.906Z,99211.73
2018-08-20T12:30:13.945Z,99220.16
2018-08-20T12:32:43.222Z,99212.17
2018-08-20T12:35:12.366Z,99204.12
2018-08-20T12:37:41.822Z,99211.09
2018-08-20T12:40:10.794Z,99202.67
2018-08-20T12:42:41.609Z,99203.30
2018-08-20T12:45:10.709Z,99208.09
2018-08-20T12:47:39.778Z,99202.45
2018-08-20T12:50:08.865Z,99196.80
2018-08-20T12:52:38.866Z,99194.17
2018-08-20T12:55:07.927Z,99199.97
2018-08-20T12:57:37.020Z,99203.59
2018-08-20T13:00:07.088Z,99195.95
2018-08-20T13:02:36.207Z,99190.94
2018-08-20T13:05:05.498Z,99189.70
2018-08-20T13:07:34.765Z,99189.48
2018-08-20T13:10:03.949Z,99188.66
2018-08-20T13:12:33.204Z,99200.27
2018-08-20T13:15:02.514Z,99194.22
2018-08-20T13:17:31.717Z,99179.53
2018-08-20T13:20:00.931Z,99176.49
2018-08-20T13:22:30.205Z,99179.53
2018-08-20T13:24:59.513Z,99178.13
2018-08-20T13:27:28.833Z,99171.70
2018-08-20T13:29:57.989Z,99169.87
2018-08-20T13:32:27.611Z,99169.23
2018-08-20T13:34:56.689Z,99169.23
2018-08-20T13:37:25.843Z,99162.64
2018-08-20T13:39:54.868Z,99158.66
2018-08-20T13:42:24.179Z,99157.22
2018-08-20T13:44:53.290Z,99150.22
2018-08-20T13:47:22.306Z,99150.22
2018-08-20T13:49:51.949Z,99147.44
2018-08-20T13:52:21.242Z,99145.59
2018-08-20T13:54:50.202Z,99144.39
2018-08-20T13:57:19.213Z,99146.63
2018-08-20T13:59:48.370Z,99146.46
2018-08-20T14:02:18.375Z,99140.64
2018-08-20T14:04:47.805Z,99137.42
2018-08-20T14:07:16.991Z,99134.55
2018-08-20T14:09:46.137Z,99135.92
2018-08-20T14:12:15.168Z,99133.69
2018-08-20T14:14:44.691Z,99128.06
2018-08-20T14:17:13.698Z,99130.47
2018-08-20T14:19:42.957Z,99131.27
2018-08-20T14:22:12.063Z,99128.06
2018-08-20T14:24:41.224Z,99131.27
2018-08-20T14:27:10.194Z,99119.19
2018-08-20T14:29:39.235Z,99115.94
2018-08-20T14:32:08.326Z,99115.27
2018-08-20T14:34:37.672Z,99115.73
2018-08-20T14:37:06.900Z,99118.42
2018-08-20T14:39:35.865Z,99121.09
2018-08-20T14:42:05.105Z,99121.12
2018-08-20T14:44:34.373Z,99115.60
2018-08-20T14:47:03.552Z,99117.09
2018-08-20T14:49:39.105Z,99110.32
2018-08-20T14:52:08.491Z,99108.57
2018-08-20T14:54:37.753Z,99104.36
2018-08-20T14:57:07.467Z,99101.72
2018-08-20T14:59:36.555Z,99107.54
2018-08-20T15:02:05.603Z,99105.53
2018-08-20T15:04:34.803Z,99099.28
2018-08-20T15:07:08.189Z,99114.91
2018-08-20T15:09:37.476Z,99103.44
2018-08-20T15:12:07.249Z,99108.23
2018-08-20T15:14:36.425Z,99107.20
2018-08-20T15:17:05.442Z,99116.41
2018-08-20T15:19:34.500Z,99113.97
2018-08-20T15:22:03.705Z,99096.76
2018-08-20T15:24:32.959Z,99109.14
2018-08-20T15:27:02.705Z,99104.33
2018-08-20T15:29:31.727Z,99101.89
2018-08-20T15:32:00.724Z,99106.88
2018-08-20T15:34:29.850Z,99116.31
2018-08-20T15:36:58.675Z,99107.08
2018-08-20T15:39:27.604Z,99105.96
2018-08-20T15:41:56.779Z,99101.78
2018-08-20T15:44:25.945Z,99105.88
2018-08-20T15:46:55.313Z,99101.87
2018-08-20T15:49:24.717Z,99105.88
2018-08-20T15:51:53.787Z,99101.69
2018-08-20T15:54:22.876Z,99097.73
2018-08-20T15:56:52.127Z,99100.13
2018-08-20T15:59:21.126Z,99098.38
2018-08-20T16:01:50.181Z,99099.01
2018-08-20T16:04:19.274Z,99092.84
2018-08-20T16:06:48.616Z,99090.08
2018-08-20T16:09:17.649Z,99083.11
2018-08-20T16:11:46.720Z,99090.92
2018-08-20T16:14:15.950Z,99082.72
2018-08-20T16:16:46.209Z,99085.34
2018-08-20T16:19:15.160Z,99081.95
2018-08-20T16:21:44.267Z,99077.52
2018-08-20T16:24:13.353Z,99083.12
2018-08-20T16:26:42.569Z,99078.31
2018-08-20T16:29:11.882Z,99067.53
2018-08-20T16:31:41.832Z,99068.91
2018-08-20T16:34:11.012Z,99073.49
2018-08-20T16:36:40.074Z,99077.48
2018-08-20T16:39:12.392Z,99077.91
2018-08-20T16:41:41.696Z,99076.50
2018-08-20T16:44:11.835Z,99078.28
2018-08-20T16:46:41.675Z,99074.48
2018-08-20T16:49:11.560Z,99077.89
2018-08-20T16:51:40.675Z,99083.31
2018-08-20T16:54:09.883Z,99074.11
2018-08-20T16:56:39.001Z,99085.56
2018-08-20T16:59:08.097Z,99084.36
2018-08-20T17:01:37.106Z,99083.97
2018-08-20T17:04:10.569Z,99086.80
2018-08-20T17:06:49.428Z,99077.59
2018-08-20T17:09:18.490Z,99089.23
2018-08-20T17:11:47.746Z,99088.27
2018-08-20T17:14:16.856Z,99092.91
2018-08-20T17:16:45.979Z,99097.33
2018-08-20T17:19:15.072Z,99100.34
2018-08-20T17:21:44.083Z,99101.36
2018-08-20T17:24:14.988Z,99099.95
2018-08-20T17:26:44.668Z,99107.14
2018-08-20T17:29:13.590Z,99105.14
2018-08-20T17:31:42.642Z,99103.14
2018-08-20T17:34:13.079Z,99097.34
2018-08-20T17:36:42.001Z,99102.77
2018-08-20T17:39:11.187Z,99106.01
2018-08-20T17:41:41.410Z,99117.43
2018-08-20T17:44:10.846Z,99117.81
2018-08-20T17:46:40.243Z,99118.83
2018-08-20T17:49:11.511Z,99111.41
2018-08-20T17:51:40.595Z,99118.80
2018-08-20T17:54:09.608Z,99120.97
2018-08-20T17:56:38.698Z,99114.54
2018-08-20T17:59:11.584Z,99121.30
2018-08-20T18:01:40.604Z,99118.65
2018-08-20T18:04:13.026Z,99123.58
2018-08-20T18:06:50.178Z,99121.48
2018-08-20T18:09:19.393Z,99125.03
2018-08-20T18:11:49.342Z,99128.73
2018-08-20T18:14:19.662Z,99127.47
2018-08-20T18:16:48.989Z,99133.82
2018-08-20T18:19:18.450Z,99130.93
2018-08-20T18:21:47.736Z,99132.69
2018-08-20T18:24:18.739Z,99133.02
2018-08-20T18:26:52.203Z,99129.11
2018-08-20T18:29:21.260Z,99138.81
2018-08-20T18:32:00.024Z,99131.95
2018-08-20T18:34:29.130Z,99134.03
2018-08-20T18:36:58.231Z,99141.76
2018-08-20T18:39:27.664Z,99142.50
2018-08-20T18:42:03.909Z,99144.34
2018-08-20T18:44:33.095Z,99147.48
2018-08-20T18:47:02.218Z,99150.41
2018-08-20T18:49:31.352Z,99155.52
2018-08-20T18:52:06.780Z,99157.42
2018-08-20T18:54:37.041Z,99154.77
2018-08-20T18:57:06.647Z,99156.08
2018-08-20T18:59:37.367Z,99157.00
2018-08-20T19:02:07.196Z,99163.48
2018-08-20T19:04:46.868Z,99162.63
2018-08-20T19:07:16.186Z,99165.97
2018-08-20T19:09:49.380Z,99164.31
2018-08-20T19:12:18.494Z,99170.20
2018-08-20T19:14:48.816Z,99177.13
2018-08-20T19:17:26.841Z,99170.91
2018-08-20T19:19:56.764Z,99182.61
2018-08-20T19:22:26.746Z,99176.17
2018-08-20T19:24:56.537Z,99180.89
2018-08-20T19:27:32.719Z,99177.83
2018-08-20T19:30:10.759Z,99177.20
2018-08-20T19:32:39.857Z,99181.33
2018-08-20T19:35:09.067Z,99179.63
2018-08-20T19:37:38.214Z,99179.80
2018-08-20T19:40:08.021Z,99176.95
2018-08-20T19:42:37.258Z,99179.47
2018-08-20T19:45:08.581Z,99181.39
2018-08-20T19:47:37.608Z,99183.31
2018-08-20T19:50:07.730Z,99181.28
2018-08-20T19:52:37.173Z,99192.95
2018-08-20T19:55:08.747Z,99189.30
2018-08-20T19:57:37.834Z,99190.64
2018-08-20T20:00:09.114Z,99196.16
2018-08-20T20:02:40.016Z,99195.52
2018-08-20T20:05:09.543Z,99194.87
2018-08-20T20:07:38.515Z,99197.20
2018-08-20T20:10:10.449Z,99196.34
2018-08-20T20:12:44.674Z,99193.49
2018-08-20T20:15:14.200Z,99191.78
2018-08-20T20:17:43.322Z,99193.73
2018-08-20T20:20:12.593Z,99200.02
2018-08-20T20:22:41.674Z,99199.95
2018-08-20T20:25:10.796Z,99196.88
2018-08-20T20:27:39.892Z,99203.77
2018-08-20T20:30:09.294Z,99201.15
2018-08-20T20:32:38.323Z,99202.25
2018-08-20T20:35:08.909Z,99196.39
2018-08-20T20:37:37.943Z,99204.31
2018-08-20T20:40:07.803Z,99202.05
2018-08-20T20:42:36.703Z,99203.66
2018-08-20T20:45:05.804Z,99204.47
2018-08-20T20:47:35.474Z,99208.96
2018-08-20T20:50:04.546Z,99208.64
2018-08-20T20:52:33.668Z,99214.13
2018-08-20T20:55:03.003Z,99207.69
2018-08-20T20:57:32.104Z,99218.94
2018-08-20T21:00:01.479Z,99220.87
2018-08-20T21:02:30.906Z,99219.60
2018-08-20T21:05:05.203Z,99221.73
2018-08-20T21:07:34.897Z,99223.63
2018-08-20T21:10:04.245Z,99229.92
2018-08-20T21:12:33.582Z,99235.41
2018-08-20T21:15:03.007Z,99231.16
2018-08-20T21:17:34.220Z,99233.29
2018-08-20T21:20:03.538Z,99230.20
2018-08-20T21:22:35.443Z,99225.95
2018-08-20T21:25:05.621Z,99227.27
2018-08-20T21:27:34.703Z,99226.00
2018-08-20T21:30:03.796Z,99224.76
2018-08-20T21:32:32.969Z,99221.88
2018-08-20T21:35:02.247Z,99229.55
2018-08-20T21:37:31.850Z,99226.08
2018-08-20T21:40:00.870Z,99235.38
2018-08-20T21:42:44.286Z,99225.92
2018-08-20T21:45:13.753Z,99228.19
2018-08-20T21:47:42.986Z,99231.31
2018-08-20T21:50:12.370Z,99231.46
2018-08-20T21:52:41.387Z,99236.55
2018-08-20T21:55:10.901Z,99229.76
2018-08-20T21:57:44.270Z,99236.05
2018-08-20T22:00:15.866Z,99230.83
2018-08-20T22:02:56.731Z,99226.58
2018-08-20T22:05:26.193Z,99225.92
2018-08-20T22:07:57.521Z,99230.81
2018-08-20T22:10:27.643Z,99235.91
2018-08-20T22:12:57.480Z,99232.11
2018-08-20T22:15:26.901Z,99237.20
2018-08-20T22:17:56.042Z,99230.17
2018-08-20T22:20:25.118Z,99230.55
2018-08-20T22:22:54.399Z,99230.66
2018-08-20T22:25:23.599Z,99235.17
2018-08-20T22:27:56.302Z,99224.99
2018-08-20T22:30:25.825Z,99224.33
2018-08-20T22:32:54.948Z,99232.22
2018-08-20T22:35:26.998Z,99224.23
2018-08-20T22:37:55.951Z,99230.14
2018-08-20T22:40:25.080Z,99223.34
2018-08-20T22:42:57.373Z,99222.30
2018-08-20T22:45:27.106Z,99222.67
2018-08-20T22:47:56.704Z,99226.98
2018-08-20T22:50:26.824Z,99221.77
2018-08-20T22:52:55.747Z,99226.86
2018-08-20T22:55:24.825Z,99221.68
2018-08-20T22:58:07.342Z,99222.84
2018-08-20T23:00:36.782Z,99227.95
2018-08-20T23:03:05.882Z,99222.75
2018-08-20T23:05:35.058Z,99223.91
2018-08-20T23:08:17.331Z,99225.09
2018-08-20T23:10:46.828Z,99225.77
2018-08-20T23:13:16.008Z,99235.29
2018-08-20T23:15:45.057Z,99243.38
2018-08-20T23:18:14.214Z,99250.90
2018-08-20T23:20:43.893Z,99251.70
2018-08-20T23:23:13.293Z,99250.18
2018-08-20T23:25:42.638Z,99246.83
2018-08-20T23:28:11.772Z,99245.44
2018-08-20T23:30:42.615Z,99243.12
2018-08-20T23:33:11.616Z,99246.69
2018-08-20T23:35:40.486Z,99244.95
2018-08-20T23:38:09.645Z,99251.08
2018-08-20T23:40:38.901Z,99254.23
2018-08-20T23:43:07.808Z,99250.07
2018-08-20T23:45:37.445Z,99256.20
2018-08-20T23:48:06.626Z,99258.51
2018-08-20T23:50:36.088Z,99261.86
2018-08-20T23:53:05.796Z,99264.20
2018-08-20T23:55:35.463Z,99260.95
2018-08-20T23:58:08.442Z,99270.47
